createdAt,value
2022-12-19T00:04:40.981Z,36.81892
2022-12-19T00:19:43.183Z,4.49011
2022-12-19T00:34:45.398Z,0
2022-12-19T00:49:48.936Z,0
2022-12-19T01:04:52.628Z,0
2022-12-19T01:19:55.080Z,0
2022-12-19T01:34:57.454Z,0
2022-12-19T01:49:59.669Z,0
2022-12-19T02:05:01.913Z,0
2022-12-19T02:20:04.279Z,0
2022-12-19T02:35:06.479Z,0
2022-12-19T02:50:08.747Z,0
2022-12-19T03:05:11.102Z,0
2022-12-19T03:20:13.490Z,0
2022-12-19T03:35:15.738Z,0
2022-12-19T03:50:18.012Z,0
2022-12-19T04:05:20.206Z,0
2022-12-19T04:20:22.410Z,0
2022-12-19T04:35:24.677Z,0
2022-12-19T04:50:27.088Z,0
2022-12-19T05:05:29.463Z,0
2022-12-19T05:20:31.807Z,0
2022-12-19T05:35:34.160Z,0
2022-12-19T05:50:36.499Z,0
2022-12-19T06:05:38.742Z,0
2022-12-19T06:20:40.969Z,0
2022-12-19T06:35:43.389Z,0
2022-12-19T06:50:45.572Z,0
2022-12-19T07:05:47.847Z,0
2022-12-19T07:20:50.453Z,0
2022-12-19T07:35:52.666Z,0
2022-12-19T07:50:54.901Z,0
2022-12-19T08:05:57.170Z,0
2022-12-19T08:20:59.383Z,0
2022-12-19T08:36:01.669Z,0
2022-12-19T08:51:03.860Z,0
2022-12-19T09:06:09.346Z,0
2022-12-19T09:21:14.382Z,0
2022-12-19T09:36:16.733Z,0
2022-12-19T09:51:18.993Z,0
2022-12-19T10:07:22.063Z,0
2022-12-19T10:22:29.916Z,0
2022-12-19T10:37:42.320Z,0
2022-12-19T10:52:49.722Z,0
2022-12-19T11:07:51.962Z,0
2022-12-19T11:29:47.126Z,0
2022-12-19T11:46:03.995Z,0
2022-12-19T12:01:06.229Z,0
2022-12-19T12:29:21.164Z,0
2022-12-19T12:46:40.421Z,0
2022-12-19T13:01:42.906Z,0
2022-12-19T13:16:45.324Z,0
2022-12-19T13:31:47.687Z,0
2022-12-19T13:46:50.168Z,0
2022-12-19T14:01:52.605Z,0
2022-12-19T14:16:54.929Z,0
2022-12-19T14:32:23.796Z,0
2022-12-19T14:54:04.973Z,0
2022-12-19T15:11:00.906Z,0.89802
2022-12-19T15:26:14.521Z,25.14463
2022-12-19T15:41:16.759Z,115.8449
2022-12-19T15:56:18.975Z,283.77512
2022-12-19T16:11:21.222Z,567.55023
2022-12-19T16:26:23.433Z,951.0058
2022-12-19T16:41:25.704Z,1428.75378
2022-12-19T16:56:28.020Z,1954.09692
2022-12-19T17:11:30.483Z,2632.10376
2022-12-19T17:26:32.728Z,3408.89331
2022-12-19T17:41:34.991Z,3898.31567
2022-12-19T17:56:37.401Z,4609.54932
2022-12-19T18:11:42.048Z,4731.68018
2022-12-19T18:26:44.746Z,4960.67627
2022-12-19T18:41:47.030Z,5618.92676
2022-12-19T18:56:49.241Z,5730.28125
2022-12-19T19:11:51.484Z,5933.23438
2022-12-19T19:26:53.751Z,6384.93994
2022-12-19T19:41:56.032Z,6661.53076
2022-12-19T19:56:58.519Z,6862.6875
2022-12-19T20:12:00.754Z,7168.01514
2022-12-19T20:27:03.026Z,6816.88867
2022-12-19T20:42:05.233Z,6046.38525
2022-12-19T20:57:07.497Z,5913.47803
2022-12-19T21:12:09.758Z,6411.88037
2022-12-19T21:27:11.934Z,5660.23584
2022-12-19T21:42:14.159Z,4977.73877
2022-12-19T21:57:16.398Z,4076.12402
2022-12-19T22:12:18.682Z,3679.198
2022-12-19T22:27:20.895Z,3094.58545
2022-12-19T22:42:23.108Z,2035.81689
2022-12-19T22:57:25.308Z,1590.39783
2022-12-19T23:12:27.529Z,654.65839
2022-12-19T23:27:29.758Z,434.64288
2022-12-19T23:42:32.012Z,199.36099
2022-12-19T23:57:34.293Z,81.72005
